Time;durP1;ratioP1;P1;durP2;ratioP2;P2;SDS_P1;SDS_P2;PMS_P1;PMS_P2;Temp;Humidity;BMP_temperature;BMP_pressure;BME280_temperature;BME280_humidity;BME280_pressure;Samples;Min_cycle;Max_cycle;Signal;HPM_P1;HPM_P2
2022/09/08 00:02:06;;;;;;;2.60;1.13;;;21.40;68.40;;;;;;5070813;28;20527;-70
2022/09/08 00:04:33;;;;;;;1.25;0.80;;;21.40;68.40;;;;;;5075878;28;20028;-71
2022/09/08 00:07:01;;;;;;;3.35;1.02;;;21.40;68.40;;;;;;5080718;28;20327;-72
2022/09/08 00:09:32;;;;;;;0.85;0.85;;;21.40;68.40;;;;;;5091975;28;20036;-72
2022/09/08 00:12:00;;;;;;;0.80;0.63;;;21.50;68.50;;;;;;5081792;28;20028;-71
2022/09/08 00:14:25;;;;;;;0.88;0.60;;;21.50;68.60;;;;;;5077124;28;20024;-71
2022/09/08 00:16:51;;;;;;;1.50;1.10;;;21.40;68.50;;;;;;5088192;28;20089;-70
2022/09/08 00:19:17;;;;;;;0.60;0.60;;;21.40;68.60;;;;;;5077779;28;20036;-70
2022/09/08 00:21:42;;;;;;;2.38;0.50;;;21.40;68.80;;;;;;5081921;28;20111;-70
2022/09/08 00:24:08;;;;;;;0.77;0.73;;;21.40;69.10;;;;;;5071197;28;20074;-71
2022/09/08 00:26:34;;;;;;;0.93;0.68;;;21.40;69.40;;;;;;5092080;28;20032;-70
2022/09/08 00:28:59;;;;;;;0.52;0.52;;;21.40;69.40;;;;;;5089380;28;20024;-70
2022/09/08 00:31:25;;;;;;;0.63;0.63;;;21.30;69.50;;;;;;5078928;28;20035;-71
2022/09/08 00:33:51;;;;;;;0.57;0.57;;;21.30;69.70;;;;;;5074004;28;20090;-70
2022/09/08 00:36:18;;;;;;;0.40;0.40;;;21.20;70.00;;;;;;5071440;28;20112;-72
2022/09/08 00:38:50;;;;;;;0.85;0.82;;;21.20;70.40;;;;;;5083208;28;20323;-73
2022/09/08 00:41:17;;;;;;;0.80;0.80;;;21.20;70.50;;;;;;5103944;28;20038;-73
2022/09/08 00:43:45;;;;;;;1.60;1.17;;;21.20;70.80;;;;;;5091019;28;20035;-71
2022/09/08 00:46:12;;;;;;;2.92;0.93;;;21.10;71.10;;;;;;5089818;28;20032;-71
2022/09/08 00:48:55;;;;;;;0.55;0.55;;;21.10;71.30;;;;;;5088171;28;20032;-71
2022/09/08 00:51:23;;;;;;;1.63;1.25;;;21.10;71.20;;;;;;5091194;28;20417;-70
2022/09/08 00:53:50;;;;;;;7.60;1.00;;;21.10;71.20;;;;;;5089939;28;20505;-70
2022/09/08 00:56:16;;;;;;;2.05;0.80;;;21.10;71.50;;;;;;5093245;28;20039;-70
2022/09/08 00:58:42;;;;;;;0.75;0.73;;;21.10;71.90;;;;;;5088426;28;20040;-70
2022/09/08 01:01:08;;;;;;;0.85;0.80;;;21.10;71.90;;;;;;5093002;28;20024;-70
2022/09/08 01:03:37;;;;;;;0.75;0.73;;;21.10;72.10;;;;;;5091574;28;20024;-69
2022/09/08 01:06:12;;;;;;;0.70;0.68;;;21.10;72.30;;;;;;5090268;28;20020;-70
2022/09/08 01:14:43;;;;;;;1.73;0.90;;;21.00;73.20;;;;;;5090517;28;20536;-70
2022/09/08 01:17:17;;;;;;;1.05;0.85;;;21.00;73.20;;;;;;5089283;28;20020;-73
2022/09/08 01:19:46;;;;;;;0.68;0.68;;;21.00;73.10;;;;;;5098911;28;20414;-73
2022/09/08 01:22:27;;;;;;;1.42;0.70;;;21.00;73.30;;;;;;5089809;28;20467;-73
2022/09/08 01:25:14;;;;;;;1.02;0.90;;;20.90;73.50;;;;;;5088956;28;20025;-73
2022/09/08 01:27:40;;;;;;;1.38;0.95;;;20.90;73.60;;;;;;5076574;28;20421;-73
2022/09/08 01:30:09;;;;;;;2.67;1.33;;;20.80;74.00;;;;;;5092709;28;20178;-73
2022/09/08 01:32:40;;;;;;;2.30;1.55;;;20.80;74.20;;;;;;5091605;28;20518;-73
2022/09/08 01:35:06;;;;;;;1.43;0.80;;;20.70;74.20;;;;;;5089858;28;20031;-73
2022/09/08 01:37:32;;;;;;;2.25;1.13;;;20.70;74.10;;;;;;5084199;28;20081;-72
2022/09/08 01:39:58;;;;;;;0.73;0.73;;;20.70;74.00;;;;;;5081359;28;20028;-72
2022/09/08 01:42:24;;;;;;;2.33;1.42;;;20.70;74.00;;;;;;5097872;28;20115;-73
2022/09/08 01:44:50;;;;;;;2.88;1.20;;;20.70;74.20;;;;;;5087429;28;20481;-70
2022/09/08 01:47:16;;;;;;;1.70;0.80;;;20.70;74.20;;;;;;5088854;28;20028;-70
2022/09/08 01:49:42;;;;;;;1.65;1.20;;;20.70;74.20;;;;;;5090478;28;20065;-70
2022/09/08 01:52:08;;;;;;;2.10;1.02;;;20.70;74.50;;;;;;5088075;28;20479;-71
2022/09/08 01:54:34;;;;;;;1.50;1.17;;;20.60;74.70;;;;;;5090497;28;20028;-70
2022/09/08 01:57:00;;;;;;;3.47;1.30;;;20.60;74.90;;;;;;5070494;28;20035;-71
2022/09/08 01:59:26;;;;;;;1.30;1.20;;;20.50;74.90;;;;;;5090689;28;20059;-73
2022/09/08 02:01:52;;;;;;;1.60;1.17;;;20.50;75.00;;;;;;5090271;28;20028;-72
2022/09/08 02:04:19;;;;;;;1.33;1.23;;;20.50;75.30;;;;;;5090092;28;20391;-73
2022/09/08 02:06:45;;;;;;;1.63;1.38;;;20.50;75.20;;;;;;5089409;28;20115;-74
2022/09/08 02:09:11;;;;;;;0.90;0.90;;;20.50;75.40;;;;;;5098749;28;20077;-73
2022/09/08 02:11:37;;;;;;;1.08;0.98;;;20.50;75.70;;;;;;5087331;28;20035;-73
2022/09/08 02:14:03;;;;;;;1.25;1.08;;;20.50;75.70;;;;;;5090486;28;20077;-73
2022/09/08 02:16:29;;;;;;;2.15;1.17;;;20.50;75.70;;;;;;5097764;28;20085;-73
2022/09/08 02:18:56;;;;;;;2.65;1.10;;;20.50;75.80;;;;;;5088030;28;20028;-74
2022/09/08 02:21:24;;;;;;;0.80;0.70;;;20.50;76.10;;;;;;5087261;28;20435;-74
2022/09/08 02:23:50;;;;;;;0.63;0.63;;;20.40;76.00;;;;;;5071387;28;20027;-73
2022/09/08 02:26:23;;;;;;;1.00;0.85;;;20.40;76.00;;;;;;5088954;28;20040;-73
2022/09/08 02:28:53;;;;;;;0.68;0.68;;;20.30;76.10;;;;;;5088371;28;20093;-73
2022/09/08 02:31:19;;;;;;;1.75;1.02;;;20.20;76.50;;;;;;5077732;28;20059;-74
2022/09/08 02:33:45;;;;;;;0.88;0.60;;;20.20;76.60;;;;;;5094265;28;20060;-74
2022/09/08 02:36:11;;;;;;;1.08;0.68;;;20.30;76.60;;;;;;5087258;28;20036;-74
2022/09/08 02:38:37;;;;;;;0.63;0.63;;;20.30;76.50;;;;;;5071077;28;20032;-73
2022/09/08 02:41:03;;;;;;;1.83;1.00;;;20.30;76.60;;;;;;5089081;28;20021;-70
2022/09/08 02:43:29;;;;;;;0.60;0.60;;;20.30;76.50;;;;;;5087983;28;20037;-70
2022/09/08 02:45:55;;;;;;;0.75;0.60;;;20.30;76.50;;;;;;5089762;28;20043;-72
2022/09/08 02:48:21;;;;;;;0.77;0.70;;;20.20;76.40;;;;;;5088181;28;20066;-70
2022/09/08 02:50:47;;;;;;;1.33;0.80;;;20.10;76.60;;;;;;5090033;28;20542;-70
2022/09/08 02:53:13;;;;;;;1.50;1.05;;;20.10;76.70;;;;;;5088379;28;20024;-70
2022/09/08 02:55:40;;;;;;;3.30;0.98;;;20.20;76.70;;;;;;5087968;28;20047;-73
2022/09/08 02:58:07;;;;;;;0.90;0.70;;;20.10;76.60;;;;;;5097778;28;20122;-72
2022/09/08 03:00:35;;;;;;;1.15;0.60;;;20.20;76.60;;;;;;5091718;28;20135;-73
2022/09/08 03:03:01;;;;;;;0.95;0.88;;;20.20;77.10;;;;;;5091170;28;20539;-73
2022/09/08 03:05:27;;;;;;;1.23;1.02;;;20.10;76.40;;;;;;5099973;28;20029;-73
2022/09/08 03:07:53;;;;;;;2.22;1.20;;;20.10;76.40;;;;;;5092406;28;20033;-71
2022/09/08 03:10:23;;;;;;;1.23;1.00;;;20.20;76.40;;;;;;5092468;28;20097;-73
2022/09/08 03:12:52;;;;;;;2.08;1.48;;;20.10;76.50;;;;;;5092997;28;20020;-73
2022/09/08 03:15:18;;;;;;;0.85;0.85;;;20.10;76.20;;;;;;5065922;28;20036;-72
2022/09/08 03:17:44;;;;;;;3.30;1.00;;;20.10;76.30;;;;;;5084479;28;20043;-72
2022/09/08 03:20:10;;;;;;;2.05;0.82;;;20.10;76.40;;;;;;5086796;28;20020;-74
2022/09/08 03:22:35;;;;;;;1.52;0.70;;;20.00;76.70;;;;;;5091343;28;20038;-72
2022/09/08 03:25:03;;;;;;;2.75;0.82;;;20.00;76.70;;;;;;5091172;28;20028;-72
2022/09/08 03:27:28;;;;;;;2.42;1.33;;;20.00;76.70;;;;;;5091443;28;20446;-71
2022/09/08 03:29:54;;;;;;;0.85;0.80;;;20.00;76.70;;;;;;5074597;28;20120;-71
2022/09/08 03:32:20;;;;;;;1.20;1.10;;;20.00;76.80;;;;;;5078286;28;20056;-72
2022/09/08 03:34:46;;;;;;;1.75;1.50;;;20.00;76.80;;;;;;5090539;28;20395;-71
2022/09/08 03:37:13;;;;;;;1.13;1.02;;;20.00;76.90;;;;;;5080993;28;20031;-72
2022/09/08 03:39:38;;;;;;;1.58;1.48;;;19.90;76.80;;;;;;5085118;28;20032;-72
2022/09/08 03:42:05;;;;;;;4.18;1.02;;;19.90;76.90;;;;;;5079620;28;20043;-72
2022/09/08 03:44:32;;;;;;;1.83;0.73;;;19.90;77.00;;;;;;5095250;28;20031;-72
2022/09/08 03:46:58;;;;;;;1.80;0.95;;;19.90;77.00;;;;;;5072077;28;20383;-72
2022/09/08 03:49:25;;;;;;;0.82;0.80;;;20.00;77.00;;;;;;5092044;28;20471;-71
2022/09/08 03:51:50;;;;;;;1.50;1.25;;;20.00;77.00;;;;;;5091689;28;20127;-73
2022/09/08 03:57:01;;;;;;;1.33;1.10;;;20.00;77.30;;;;;;5089780;28;20039;-71
2022/09/08 03:59:28;;;;;;;1.85;1.23;;;20.00;77.40;;;;;;5073820;28;20406;-73
2022/09/08 04:01:54;;;;;;;1.77;1.55;;;20.00;77.50;;;;;;5091394;28;20020;-71
2022/09/08 04:04:22;;;;;;;3.78;1.30;;;20.00;77.60;;;;;;5080673;28;20111;-71
2022/09/08 04:06:49;;;;;;;2.13;0.85;;;20.00;77.60;;;;;;5085299;28;20028;-72
2022/09/08 04:09:15;;;;;;;1.10;1.00;;;20.00;77.70;;;;;;5088131;28;20498;-75
2022/09/08 04:11:40;;;;;;;1.08;0.98;;;20.00;77.60;;;;;;5070401;28;20032;-74
2022/09/08 04:14:06;;;;;;;1.33;1.05;;;20.00;77.70;;;;;;5071588;28;20096;-74
2022/09/08 04:16:32;;;;;;;4.78;1.45;;;20.00;77.70;;;;;;5080981;28;20487;-74
2022/09/08 04:18:57;;;;;;;4.55;1.23;;;20.00;77.70;;;;;;5085197;28;20115;-74
2022/09/08 04:21:23;;;;;;;4.13;1.20;;;20.00;77.60;;;;;;5074272;28;20032;-74
2022/09/08 04:23:48;;;;;;;1.52;1.10;;;20.00;77.50;;;;;;5078694;28;20028;-73
2022/09/08 04:26:14;;;;;;;0.80;0.80;;;20.00;77.60;;;;;;5079825;28;20024;-73
2022/09/08 04:28:41;;;;;;;1.30;0.85;;;20.00;77.70;;;;;;5075036;28;20147;-73
2022/09/08 04:31:13;;;;;;;3.05;0.70;;;20.00;78.30;;;;;;5071943;28;20463;-74
2022/09/08 04:33:40;;;;;;;1.15;0.77;;;20.00;77.70;;;;;;5085492;28;20107;-74
2022/09/08 04:36:11;;;;;;;1.38;0.95;;;20.00;77.60;;;;;;5082682;28;20036;-71
2022/09/08 04:38:38;;;;;;;1.88;1.15;;;20.00;77.80;;;;;;5090064;28;20024;-71
2022/09/08 04:41:08;;;;;;;0.90;0.75;;;19.90;77.80;;;;;;5089218;28;20028;-71
2022/09/08 04:43:35;;;;;;;1.23;0.93;;;19.90;77.80;;;;;;5094330;28;20070;-71
2022/09/08 04:46:07;;;;;;;3.40;1.45;;;20.00;77.70;;;;;;5090432;28;20028;-71
2022/09/08 04:48:34;;;;;;;1.02;0.80;;;20.00;77.50;;;;;;5090604;28;20032;-70
2022/09/08 04:51:00;;;;;;;1.52;1.00;;;20.00;77.50;;;;;;5084835;28;20036;-70
2022/09/08 04:53:29;;;;;;;0.73;0.73;;;20.00;77.40;;;;;;5067507;28;20111;-74
2022/09/08 04:55:55;;;;;;;1.77;1.20;;;20.00;77.30;;;;;;5079715;28;20108;-73
2022/09/08 04:58:21;;;;;;;2.70;1.65;;;20.00;77.50;;;;;;5085529;28;20135;-73
2022/09/08 05:00:48;;;;;;;1.80;1.30;;;20.00;77.50;;;;;;5074497;28;20053;-73
2022/09/08 05:03:14;;;;;;;1.17;0.80;;;19.90;77.50;;;;;;5070405;28;20028;-73
2022/09/08 05:05:40;;;;;;;1.67;1.40;;;19.90;77.50;;;;;;5076491;28;20081;-73
2022/09/08 05:08:06;;;;;;;1.00;0.90;;;19.90;77.60;;;;;;5073425;28;20029;-73
2022/09/08 05:10:33;;;;;;;1.15;0.80;;;19.80;77.60;;;;;;5064352;28;20038;-73
2022/09/08 05:12:59;;;;;;;1.02;0.77;;;19.70;77.70;;;;;;5075388;28;20023;-73
2022/09/08 05:15:25;;;;;;;2.03;0.85;;;19.70;78.10;;;;;;5073149;28;20029;-73
2022/09/08 05:17:52;;;;;;;5.57;1.00;;;19.60;78.80;;;;;;5068928;28;20127;-73
2022/09/08 05:20:18;;;;;;;1.08;1.00;;;19.60;78.40;;;;;;5076617;28;20102;-73
2022/09/08 05:22:43;;;;;;;1.13;0.80;;;19.60;78.40;;;;;;5091329;28;20058;-73
2022/09/08 05:25:09;;;;;;;1.40;1.20;;;19.60;78.40;;;;;;5092707;28;20066;-74
2022/09/08 05:27:35;;;;;;;1.73;1.00;;;19.60;78.40;;;;;;5083766;28;20031;-73
2022/09/08 05:30:01;;;;;;;4.05;1.55;;;19.60;78.40;;;;;;5077224;28;20029;-74
2022/09/08 05:32:26;;;;;;;1.45;1.02;;;19.60;78.50;;;;;;5079814;28;20033;-73
2022/09/08 05:34:52;;;;;;;1.77;1.15;;;19.50;78.50;;;;;;5071626;28;20107;-74
2022/09/08 05:37:18;;;;;;;2.28;1.67;;;19.50;78.50;;;;;;5068987;28;20032;-73
2022/09/08 05:39:46;;;;;;;1.45;0.73;;;19.50;78.70;;;;;;5087724;28;20098;-72
2022/09/08 05:42:13;;;;;;;2.38;0.90;;;19.50;78.90;;;;;;5069897;28;20078;-71
2022/09/08 05:44:38;;;;;;;2.28;1.10;;;19.50;78.90;;;;;;5089974;28;20029;-71
2022/09/08 05:47:04;;;;;;;4.60;1.77;;;19.40;79.00;;;;;;5080874;28;20020;-72
2022/09/08 05:49:31;;;;;;;1.27;0.80;;;19.40;79.20;;;;;;5075900;28;20035;-72
2022/09/08 05:51:57;;;;;;;1.23;1.00;;;19.40;79.30;;;;;;5089409;28;20111;-72
2022/09/08 05:54:24;;;;;;;1.10;0.98;;;19.30;79.30;;;;;;5089756;28;20032;-72
2022/09/08 05:56:50;;;;;;;1.10;1.05;;;19.30;79.30;;;;;;5088927;28;20066;-72
2022/09/08 05:59:15;;;;;;;1.17;1.00;;;19.30;79.40;;;;;;5089105;28;20659;-68
2022/09/08 06:01:41;;;;;;;1.85;1.05;;;19.30;79.50;;;;;;5070954;28;20028;-68
2022/09/08 06:04:07;;;;;;;7.03;1.38;;;19.20;79.60;;;;;;5084174;28;20052;-68
2022/09/08 06:06:33;;;;;;;1.42;1.33;;;19.20;80.20;;;;;;5088694;28;20020;-68
2022/09/08 06:09:00;;;;;;;1.42;1.27;;;19.20;79.80;;;;;;5071728;28;20027;-68
2022/09/08 06:11:28;;;;;;;3.92;1.30;;;19.10;79.70;;;;;;5089333;28;20036;-68
2022/09/08 06:13:55;;;;;;;1.45;0.95;;;19.20;80.00;;;;;;5089833;28;20024;-69
2022/09/08 06:16:21;;;;;;;1.50;1.20;;;19.10;80.00;;;;;;5096080;28;20036;-68
2022/09/08 06:18:47;;;;;;;1.67;1.27;;;19.10;80.00;;;;;;5086628;28;20047;-68
2022/09/08 06:21:19;;;;;;;1.45;1.35;;;19.10;80.20;;;;;;5096566;28;20032;-69
2022/09/08 06:23:49;;;;;;;4.25;2.28;;;19.10;80.50;;;;;;5089484;28;20027;-68
2022/09/08 06:26:30;;;;;;;1.27;1.17;;;19.00;80.60;;;;;;5089148;28;20038;-69
2022/09/08 06:29:08;;;;;;;1.83;1.30;;;19.10;80.40;;;;;;5089486;28;20021;-68
2022/09/08 06:31:40;;;;;;;2.55;1.77;;;19.10;80.40;;;;;;5089388;28;20082;-69
2022/09/08 06:34:17;;;;;;;1.77;1.30;;;19.10;80.50;;;;;;5093231;28;20027;-67
2022/09/08 06:36:58;;;;;;;3.53;1.63;;;19.10;80.60;;;;;;5085600;28;20466;-68
2022/09/08 06:39:31;;;;;;;2.15;1.10;;;19.10;80.50;;;;;;5088344;28;20032;-68
2022/09/08 06:42:07;;;;;;;3.47;1.83;;;19.10;80.60;;;;;;5105364;28;20025;-68
2022/09/08 06:44:37;;;;;;;1.60;1.42;;;19.20;80.80;;;;;;5093539;28;20030;-67
2022/09/08 06:47:10;;;;;;;1.98;1.20;;;19.10;80.80;;;;;;5091442;28;20115;-69
2022/09/08 06:49:36;;;;;;;1.27;1.17;;;19.00;80.70;;;;;;5093284;28;20487;-71
2022/09/08 06:52:32;;;;;;;1.80;1.55;;;19.00;80.90;;;;;;5083476;28;20429;-72
2022/09/08 06:55:20;;;;;;;4.47;1.27;;;19.00;80.90;;;;;;5093363;28;20016;-68
2022/09/08 06:58:14;;;;;;;5.97;1.20;;;19.00;80.90;;;;;;5096352;28;20035;-67
2022/09/08 07:00:46;;;;;;;4.10;1.63;;;19.10;80.90;;;;;;5085072;28;20090;-68
2022/09/08 07:03:18;;;;;;;1.75;1.33;;;19.10;80.90;;;;;;5090525;28;20031;-69
2022/09/08 07:06:07;;;;;;;2.05;1.35;;;19.10;80.80;;;;;;5093133;28;20020;-68
2022/09/08 07:08:51;;;;;;;1.67;0.98;;;19.10;80.90;;;;;;5077183;28;20021;-68
2022/09/08 07:12:10;;;;;;;2.25;1.00;;;19.10;81.00;;;;;;5091265;28;20058;-67
2022/09/08 07:15:02;;;;;;;1.30;1.20;;;19.20;80.70;;;;;;5059859;28;20036;-67
2022/09/08 07:17:46;;;;;;;3.20;1.45;;;19.20;80.60;;;;;;5082557;28;20507;-68
2022/09/08 07:20:12;;;;;;;3.10;1.23;;;19.20;80.60;;;;;;5092368;28;20531;-68
2022/09/08 07:22:38;;;;;;;1.58;1.45;;;19.20;80.50;;;;;;5090385;28;20052;-68
2022/09/08 07:25:27;;;;;;;1.98;1.35;;;19.20;80.40;;;;;;5092782;28;20055;-68
2022/09/08 07:28:17;;;;;;;1.80;1.25;;;19.30;80.30;;;;;;5080350;28;20178;-68
2022/09/08 07:30:46;;;;;;;3.03;1.50;;;19.30;80.30;;;;;;5090896;28;20103;-73
2022/09/08 07:33:14;;;;;;;2.10;1.27;;;19.30;80.40;;;;;;5090139;28;20020;-68
2022/09/08 07:36:12;;;;;;;0.82;0.82;;;19.30;80.40;;;;;;5092259;28;20419;-69
2022/09/08 07:38:48;;;;;;;2.58;1.27;;;19.30;80.30;;;;;;5068837;28;20028;-69
2022/09/08 07:41:40;;;;;;;0.95;0.85;;;19.30;80.30;;;;;;5089826;28;20483;-69
2022/09/08 07:44:11;;;;;;;;;;;19.30;80.40;;;;;;5083376;28;20494;-69
2022/09/08 07:46:45;;;;;;;2.08;1.40;;;19.30;80.50;;;;;;5091163;28;20329;-72
2022/09/08 07:49:55;;;;;;;1.33;1.23;;;19.30;80.30;;;;;;5091932;28;20023;-68
2022/09/08 07:52:40;;;;;;;1.15;0.93;;;19.40;80.20;;;;;;5041021;28;20483;-68
2022/09/08 07:55:51;;;;;;;1.65;1.17;;;19.40;80.10;;;;;;5094455;28;20028;-72
2022/09/08 07:58:28;;;;;;;2.05;1.67;;;19.40;80.20;;;;;;5052426;28;20451;-72
2022/09/08 08:01:01;;;;;;;2.42;1.60;;;19.40;80.20;;;;;;5092212;28;20030;-68
2022/09/08 08:03:36;;;;;;;1.85;1.30;;;19.40;80.10;;;;;;5090910;28;20495;-72
2022/09/08 08:06:11;;;;;;;5.72;0.98;;;19.40;80.10;;;;;;5089677;28;20479;-73
2022/09/08 08:09:03;;;;;;;1.25;1.00;;;19.40;80.00;;;;;;5090087;28;20051;-69
2022/09/08 08:12:16;;;;;;;1.10;1.00;;;19.50;80.10;;;;;;5079601;28;20054;-68
2022/09/08 08:15:12;;;;;;;0.80;0.80;;;19.50;80.00;;;;;;5080275;28;20032;-68
2022/09/08 08:18:16;;;;;;;1.33;1.23;;;19.50;80.00;;;;;;5084507;28;20031;-69
2022/09/08 08:20:56;;;;;;;3.00;1.67;;;19.50;80.10;;;;;;5011881;28;20479;-69
2022/09/08 08:23:59;;;;;;;1.20;1.10;;;19.40;80.30;;;;;;5018908;28;20068;-69
2022/09/08 08:26:25;;;;;;;2.67;1.33;;;19.50;80.40;;;;;;5071277;28;21945;-69
2022/09/08 08:29:16;;;;;;;2.17;1.55;;;19.40;80.80;;;;;;5078987;28;20560;-69
2022/09/08 08:31:56;;;;;;;1.10;1.00;;;19.50;80.80;;;;;;5084729;28;20069;-70
2022/09/08 08:34:28;;;;;;;2.80;1.67;;;19.50;80.60;;;;;;5116156;27;20038;-72
2022/09/08 08:37:02;;;;;;;2.45;1.05;;;19.60;80.50;;;;;;5074044;28;20391;-72
2022/09/08 08:39:30;;;;;;;1.55;1.45;;;19.70;80.30;;;;;;5073609;28;20107;-72
2022/09/08 08:42:35;;;;;;;3.42;1.73;;;19.80;80.10;;;;;;5076124;28;20036;-72
2022/09/08 08:45:28;;;;;;;1.95;1.40;;;19.90;79.90;;;;;;5082797;28;20028;-73
2022/09/08 08:47:59;;;;;;;4.28;1.30;;;19.90;79.90;;;;;;5079829;28;20049;-71
2022/09/08 08:51:22;;;;;;;1.10;0.97;;;19.90;79.90;;;;;;5082657;28;20522;-69
2022/09/08 08:54:21;;;;;;;1.73;1.38;;;20.00;79.30;;;;;;5062656;28;20041;-70
2022/09/08 08:57:32;;;;;;;2.28;1.42;;;20.00;79.10;;;;;;5084788;28;20375;-70
2022/09/08 09:00:06;;;;;;;2.80;1.42;;;20.10;79.40;;;;;;5084851;28;20055;-70
2022/09/08 09:03:00;;;;;;;1.80;1.40;;;20.10;79.30;;;;;;5084228;28;20440;-70
2022/09/08 09:05:31;;;;;;;1.30;1.20;;;20.10;79.30;;;;;;5081853;28;20025;-71
2022/09/08 09:08:24;;;;;;;2.27;1.93;;;20.20;79.10;;;;;;5079967;28;21437;-70
2022/09/08 09:11:21;;;;;;;2.67;1.50;;;20.30;79.00;;;;;;5078849;28;20073;-70
2022/09/08 09:14:00;;;;;;;1.95;1.50;;;20.40;78.60;;;;;;5084691;28;20024;-70
2022/09/08 09:16:37;;;;;;;2.90;2.35;;;20.40;78.20;;;;;;5087790;28;20028;-71
2022/09/08 09:19:15;;;;;;;1.50;1.25;;;20.30;78.00;;;;;;5074307;28;20475;-74
2022/09/08 09:21:53;;;;;;;1.58;1.45;;;20.30;78.20;;;;;;5082720;28;20016;-74
2022/09/08 09:24:37;;;;;;;1.85;1.38;;;20.30;78.30;;;;;;5078770;28;20058;-73
2022/09/08 09:27:16;;;;;;;1.58;1.20;;;20.20;78.30;;;;;;5075092;28;20020;-74
2022/09/08 09:29:42;;;;;;;1.42;1.33;;;20.20;78.50;;;;;;5088685;28;20434;-70
2022/09/08 09:32:29;;;;;;;1.63;1.48;;;20.40;79.20;;;;;;5075059;28;20035;-73
2022/09/08 09:35:04;;;;;;;2.35;1.60;;;20.70;78.30;;;;;;5076399;28;20036;-74
2022/09/08 09:37:54;;;;;;;5.82;1.52;;;20.80;77.50;;;;;;5083488;28;20513;-73
2022/09/08 09:40:30;;;;;;;1.95;1.25;;;20.80;77.30;;;;;;5093133;28;20038;-73
2022/09/08 09:43:21;;;;;;;2.28;1.30;;;20.80;77.40;;;;;;5090838;28;20424;-72
2022/09/08 09:46:21;;;;;;;2.95;1.83;;;20.80;77.30;;;;;;5075327;28;20012;-74
2022/09/08 09:48:49;;;;;;;4.28;1.63;;;20.70;76.90;;;;;;5076332;28;20031;-74
2022/09/08 09:51:18;;;;;;;1.85;1.48;;;20.60;77.30;;;;;;5077517;28;20027;-74
2022/09/08 09:54:14;;;;;;;2.67;1.20;;;20.60;77.40;;;;;;5081138;28;20038;-74
2022/09/08 09:56:58;;;;;;;2.00;1.45;;;20.60;77.20;;;;;;5080220;28;20029;-74
2022/09/08 10:00:00;;;;;;;1.17;1.08;;;20.70;77.30;;;;;;5076254;28;20048;-74
2022/09/08 10:02:45;;;;;;;3.13;1.30;;;20.80;76.90;;;;;;5071280;28;20037;-71
2022/09/08 10:05:48;;;;;;;1.83;1.52;;;20.90;76.90;;;;;;5086144;28;20028;-72
2022/09/08 10:08:35;;;;;;;1.42;0.88;;;21.00;76.80;;;;;;5087649;28;20479;-72
2022/09/08 10:11:31;;;;;;;2.28;1.40;;;21.10;76.60;;;;;;5079612;28;20024;-72
2022/09/08 10:14:25;;;;;;;1.55;1.15;;;21.20;77.00;;;;;;5080550;28;20099;-72
2022/09/08 10:16:57;;;;;;;2.20;1.60;;;21.30;76.60;;;;;;5081612;28;20063;-74
2022/09/08 10:20:03;;;;;;;1.05;1.00;;;21.10;75.50;;;;;;5090718;28;20036;-74
2022/09/08 10:22:37;;;;;;;1.33;1.05;;;21.10;75.90;;;;;;5070451;28;20470;-75
2022/09/08 10:25:35;;;;;;;1.40;1.23;;;21.20;75.30;;;;;;5085199;28;20550;-74
2022/09/08 10:28:40;;;;;;;1.77;1.02;;;21.20;75.10;;;;;;5078826;28;20067;-75
2022/09/08 10:31:14;;;;;;;1.50;1.40;;;21.30;74.80;;;;;;5083026;28;20209;-72
2022/09/08 10:34:12;;;;;;;8.70;1.45;;;21.40;74.90;;;;;;5081684;28;20107;-72
2022/09/08 10:37:02;;;;;;;0.85;0.75;;;21.70;74.70;;;;;;5080618;28;20046;-72
2022/09/08 10:39:50;;;;;;;1.42;1.00;;;21.90;73.90;;;;;;5083746;28;20058;-72
2022/09/08 10:42:54;;;;;;;1.77;1.30;;;21.80;73.20;;;;;;5089274;28;20028;-72
2022/09/08 10:45:26;;;;;;;0.68;0.68;;;21.80;73.50;;;;;;5083679;28;20588;-75
2022/09/08 10:48:30;;;;;;;2.15;1.23;;;21.90;73.90;;;;;;5084925;28;20020;-75
2022/09/08 10:51:29;;;;;;;1.55;0.68;;;22.00;73.40;;;;;;5069896;28;20047;-75
2022/09/08 10:54:23;;;;;;;0.98;0.95;;;22.10;73.40;;;;;;5078587;28;20463;-72
2022/09/08 10:56:49;;;;;;;1.20;1.10;;;22.10;72.80;;;;;;5075094;28;20028;-72
2022/09/08 10:59:43;;;;;;;0.73;0.73;;;22.10;72.90;;;;;;5081099;28;20067;-72
2022/09/08 11:02:10;;;;;;;1.42;0.90;;;22.10;72.90;;;;;;5081023;28;20480;-71
2022/09/08 11:04:54;;;;;;;1.33;1.13;;;22.10;73.30;;;;;;5077020;28;20032;-72
2022/09/08 11:07:20;;;;;;;1.27;0.80;;;22.00;72.40;;;;;;5071707;28;20028;-72
2022/09/08 11:10:22;;;;;;;3.95;1.35;;;21.90;71.60;;;;;;5079080;28;20077;-74
2022/09/08 11:13:25;;;;;;;0.70;0.60;;;21.80;71.70;;;;;;5077206;28;20112;-74
2022/09/08 11:16:03;;;;;;;0.60;0.60;;;21.90;71.30;;;;;;5073091;28;20102;-74
2022/09/08 11:19:00;;;;;;;0.70;0.70;;;22.00;71.30;;;;;;5088193;28;20511;-74
2022/09/08 11:21:34;;;;;;;1.25;0.90;;;22.50;70.60;;;;;;5075964;28;20056;-74
2022/09/08 11:24:22;;;;;;;2.20;1.08;;;22.90;69.40;;;;;;5073449;28;20052;-74
2022/09/08 11:27:29;;;;;;;2.05;0.77;;;23.20;68.50;;;;;;5086135;28;20031;-71
2022/09/08 11:30:18;;;;;;;3.83;0.98;;;23.30;66.90;;;;;;5024698;28;20026;-72
2022/09/08 11:33:07;;;;;;;3.60;1.63;;;23.10;66.90;;;;;;5015192;28;20075;-72
2022/09/08 11:35:39;;;;;;;0.75;0.50;;;22.90;67.30;;;;;;5060139;28;20127;-72
2022/09/08 11:38:39;;;;;;;4.97;1.45;;;22.60;67.20;;;;;;5081595;28;20055;-74
2022/09/08 11:41:20;;;;;;;0.88;0.88;;;22.40;68.50;;;;;;5062483;28;20044;-74
2022/09/08 11:44:40;;;;;;;0.65;0.60;;;22.50;69.60;;;;;;5077560;28;20032;-74
2022/09/08 11:47:27;;;;;;;1.42;0.82;;;22.80;69.70;;;;;;5056163;28;20459;-74
2022/09/08 11:50:29;;;;;;;2.80;0.63;;;23.00;69.20;;;;;;5078665;28;20100;-73
2022/09/08 11:53:04;;;;;;;1.02;0.93;;;23.20;66.50;;;;;;5070918;28;20549;-73
2022/09/08 11:55:45;;;;;;;1.13;0.90;;;23.00;64.70;;;;;;5079829;28;20467;-74
2022/09/08 11:58:30;;;;;;;0.90;0.82;;;22.70;63.10;;;;;;5084505;28;20060;-73
2022/09/08 12:01:39;;;;;;;0.60;0.60;;;22.50;65.00;;;;;;5080828;28;20123;-73
2022/09/08 12:04:11;;;;;;;0.88;0.63;;;22.60;65.10;;;;;;5074296;28;20025;-71
2022/09/08 12:07:30;;;;;;;1.17;0.80;;;22.80;64.30;;;;;;5082329;28;20450;-73
2022/09/08 12:10:05;;;;;;;0.75;0.75;;;23.10;64.30;;;;;;5036044;28;20138;-73
2022/09/08 12:13:01;;;;;;;2.10;0.93;;;23.60;63.20;;;;;;5027071;28;20496;-74
2022/09/08 12:15:33;;;;;;;0.70;0.70;;;23.80;60.80;;;;;;5062734;28;20040;-73
2022/09/08 12:18:19;;;;;;;0.60;0.60;;;24.10;60.70;;;;;;5082185;28;20058;-73
2022/09/08 12:21:06;;;;;;;1.70;1.02;;;24.40;60.90;;;;;;5076134;28;20453;-72
2022/09/08 12:23:49;;;;;;;0.40;0.40;;;24.40;60.10;;;;;;5074218;28;20058;-74
2022/09/08 12:26:52;;;;;;;3.03;0.47;;;24.30;60.20;;;;;;5083233;28;20032;-72
2022/09/08 12:29:48;;;;;;;0.93;0.63;;;24.30;60.10;;;;;;5073452;28;20035;-71
2022/09/08 12:32:26;;;;;;;1.05;0.60;;;24.70;60.60;;;;;;5083697;28;20468;-74
2022/09/08 12:35:09;;;;;;;5.45;0.88;;;25.00;57.70;;;;;;5071012;28;20186;-71
2022/09/08 12:37:38;;;;;;;0.55;0.55;;;25.10;57.20;;;;;;5075024;28;20818;-74
2022/09/08 12:40:13;;;;;;;0.70;0.70;;;25.20;55.80;;;;;;5076635;28;20077;-74
2022/09/08 12:42:54;;;;;;;1.08;0.80;;;25.40;56.30;;;;;;5077921;28;20142;-74
2022/09/08 12:45:47;;;;;;;1.70;0.45;;;25.70;55.60;;;;;;5078071;28;20670;-74
2022/09/08 12:48:22;;;;;;;0.57;0.57;;;25.80;54.40;;;;;;5078096;28;20468;-71
2022/09/08 12:50:57;;;;;;;1.98;0.80;;;25.40;54.60;;;;;;5074121;28;20020;-72
2022/09/08 12:53:34;;;;;;;9.23;1.23;;;25.00;54.50;;;;;;5092967;28;20020;-70
2022/09/08 12:56:25;;;;;;;0.68;0.68;;;25.00;55.30;;;;;;5073600;28;20475;-69
2022/09/08 12:59:28;;;;;;;3.58;0.95;;;25.30;55.20;;;;;;5085577;28;20068;-71
2022/09/08 13:02:18;;;;;;;0.40;0.40;;;25.80;53.70;;;;;;5081373;28;20466;-71
2022/09/08 13:05:15;;;;;;;1.15;1.05;;;26.10;53.80;;;;;;5081966;28;20371;-71
2022/09/08 13:08:09;;;;;;;1.13;1.02;;;26.30;52.60;;;;;;5075316;28;20104;-71
2022/09/08 13:10:39;;;;;;;2.42;0.60;;;26.30;51.00;;;;;;5090047;27;20047;-72
2022/09/08 13:13:23;;;;;;;0.50;0.50;;;26.30;52.10;;;;;;5090610;28;20028;-72
2022/09/08 13:16:18;;;;;;;0.40;0.40;;;26.40;52.20;;;;;;5090259;28;20110;-70
2022/09/08 13:19:11;;;;;;;1.05;0.82;;;26.60;50.70;;;;;;5080400;28;20063;-71
2022/09/08 13:22:02;;;;;;;0.55;0.40;;;26.80;50.30;;;;;;5080327;28;20031;-70
2022/09/08 13:24:43;;;;;;;0.50;0.50;;;26.80;47.70;;;;;;5079126;28;20050;-72
2022/09/08 13:27:37;;;;;;;3.00;0.65;;;26.70;48.80;;;;;;5078593;28;20468;-71
2022/09/08 13:30:27;;;;;;;0.30;0.30;;;26.60;49.00;;;;;;5079075;28;20060;-70
2022/09/08 13:33:03;;;;;;;0.85;0.50;;;26.20;49.60;;;;;;5085580;28;20020;-70
2022/09/08 13:36:06;;;;;;;1.30;0.60;;;26.20;50.40;;;;;;5079497;28;20024;-74
2022/09/08 13:38:55;;;;;;;2.03;1.05;;;26.50;50.50;;;;;;5078252;28;20089;-74
2022/09/08 13:41:45;;;;;;;0.80;0.80;;;26.70;49.40;;;;;;5068068;28;20072;-73
2022/09/08 13:44:38;;;;;;;0.45;0.40;;;27.00;49.80;;;;;;5079885;28;20451;-74
2022/09/08 13:47:38;;;;;;;1.83;0.75;;;27.30;48.20;;;;;;5075891;28;20019;-72